sensor_id;sensor_type;location;lat;lon;timestamp;pressure;altitude;pressure_sealevel;temperature;humidity
19624;BME280;9959;49.798;9.928;2023-03-04T00:00:12;100273.66;;;-1.35;92.50
19624;BME280;9959;49.798;9.928;2023-03-04T00:02:42;100279.91;;;-1.36;92.69
19624;BME280;9959;49.798;9.928;2023-03-04T00:05:10;100283.53;;;-1.37;92.81
19624;BME280;9959;49.798;9.928;2023-03-04T00:07:37;100286.66;;;-1.43;92.98
19624;BME280;9959;49.798;9.928;2023-03-04T00:10:04;100294.81;;;-1.35;92.54
19624;BME280;9959;49.798;9.928;2023-03-04T00:12:32;100279.69;;;-1.44;92.92
19624;BME280;9959;49.798;9.928;2023-03-04T00:14:59;100288.81;;;-1.37;93.02
19624;BME280;9959;49.798;9.928;2023-03-04T00:17:25;100291.72;;;-1.40;93.32
19624;BME280;9959;49.798;9.928;2023-03-04T00:19:52;100285.69;;;-1.42;92.94
19624;BME280;9959;49.798;9.928;2023-03-04T00:22:19;100284.38;;;-1.48;93.63
19624;BME280;9959;49.798;9.928;2023-03-04T00:24:46;100292.38;;;-1.60;94.52
19624;BME280;9959;49.798;9.928;2023-03-04T00:27:13;100283.75;;;-1.62;95.12
19624;BME280;9959;49.798;9.928;2023-03-04T00:29:40;100281.38;;;-1.65;94.88
19624;BME280;9959;49.798;9.928;2023-03-04T00:32:06;100288.19;;;-1.74;95.16
19624;BME280;9959;49.798;9.928;2023-03-04T00:34:33;100289.41;;;-1.67;94.89
19624;BME280;9959;49.798;9.928;2023-03-04T00:37:00;100289.41;;;-1.67;94.70
19624;BME280;9959;49.798;9.928;2023-03-04T00:39:29;100291.94;;;-1.65;95.28
19624;BME280;9959;49.798;9.928;2023-03-04T00:41:56;100286.66;;;-1.65;94.85
19624;BME280;9959;49.798;9.928;2023-03-04T00:44:27;100293.72;;;-1.55;94.29
19624;BME280;9959;49.798;9.928;2023-03-04T00:46:54;100293.59;;;-1.53;94.56
19624;BME280;9959;49.798;9.928;2023-03-04T00:49:21;100288.69;;;-1.69;95.28
19624;BME280;9959;49.798;9.928;2023-03-04T00:51:47;100293.13;;;-1.58;95.79
19624;BME280;9959;49.798;9.928;2023-03-04T00:54:14;100290.25;;;-1.66;96.38
19624;BME280;9959;49.798;9.928;2023-03-04T00:56:42;100291.78;;;-1.64;97.12
19624;BME280;9959;49.798;9.928;2023-03-04T00:59:11;100292.16;;;-1.57;97.54
19624;BME280;9959;49.798;9.928;2023-03-04T01:01:38;100287.84;;;-1.58;98.10
19624;BME280;9959;49.798;9.928;2023-03-04T01:04:05;100282.91;;;-1.52;98.50
19624;BME280;9959;49.798;9.928;2023-03-04T01:06:35;100283.28;;;-1.45;97.76
19624;BME280;9959;49.798;9.928;2023-03-04T01:09:04;100284.22;;;-1.35;98.02
19624;BME280;9959;49.798;9.928;2023-03-04T01:11:31;100292.53;;;-1.40;98.60
19624;BME280;9959;49.798;9.928;2023-03-04T01:13:57;100283.03;;;-1.53;99.73
19624;BME280;9959;49.798;9.928;2023-03-04T01:16:24;100289.75;;;-1.60;100.00
19624;BME280;9959;49.798;9.928;2023-03-04T01:18:51;100289.66;;;-1.48;99.60
19624;BME280;9959;49.798;9.928;2023-03-04T01:21:18;100289.97;;;-1.63;100.00
19624;BME280;9959;49.798;9.928;2023-03-04T01:23:45;100291.47;;;-1.37;100.00
19624;BME280;9959;49.798;9.928;2023-03-04T01:26:12;100288.44;;;-1.55;99.29
19624;BME280;9959;49.798;9.928;2023-03-04T01:28:38;100282.91;;;-1.74;100.00
19624;BME280;9959;49.798;9.928;2023-03-04T01:31:05;100283.28;;;-1.67;100.00
19624;BME280;9959;49.798;9.928;2023-03-04T01:33:32;100286.16;;;-1.59;100.00
19624;BME280;9959;49.798;9.928;2023-03-04T01:35:59;100283.63;;;-1.61;100.00
19624;BME280;9959;49.798;9.928;2023-03-04T01:38:26;100281.84;;;-1.49;100.00
19624;BME280;9959;49.798;9.928;2023-03-04T01:40:53;100277.75;;;-1.53;100.00
19624;BME280;9959;49.798;9.928;2023-03-04T01:43:23;100276.09;;;-1.43;100.00
19624;BME280;9959;49.798;9.928;2023-03-04T01:45:51;100277.53;;;-1.50;100.00
19624;BME280;9959;49.798;9.928;2023-03-04T01:48:27;100275.00;;;-1.41;100.00
19624;BME280;9959;49.798;9.928;2023-03-04T01:50:56;100267.44;;;-1.45;100.00
19624;BME280;9959;49.798;9.928;2023-03-04T01:53:26;100270.09;;;-1.45;100.00
19624;BME280;9959;49.798;9.928;2023-03-04T01:55:54;100265.75;;;-1.46;100.00
19624;BME280;9959;49.798;9.928;2023-03-04T01:58:28;100268.88;;;-1.41;100.00
19624;BME280;9959;49.798;9.928;2023-03-04T02:00:56;100260.22;;;-1.21;99.20
19624;BME280;9959;49.798;9.928;2023-03-04T02:03:24;100261.41;;;-1.14;98.67
19624;BME280;9959;49.798;9.928;2023-03-04T02:05:52;100258.53;;;-1.11;98.67
19624;BME280;9959;49.798;9.928;2023-03-04T02:08:21;100261.38;;;-1.03;97.90
19624;BME280;9959;49.798;9.928;2023-03-04T02:10:52;100258.50;;;-0.99;97.86
19624;BME280;9959;49.798;9.928;2023-03-04T02:13:20;100246.59;;;-0.94;97.90
19624;BME280;9959;49.798;9.928;2023-03-04T02:15:47;100251.38;;;-0.88;97.47
19624;BME280;9959;49.798;9.928;2023-03-04T02:18:22;100238.28;;;-0.89;97.42
19624;BME280;9959;49.798;9.928;2023-03-04T02:23:43;100237.28;;;-0.77;96.76
19624;BME280;9959;49.798;9.928;2023-03-04T02:26:29;100231.38;;;-0.81;96.57
19624;BME280;9959;49.798;9.928;2023-03-04T02:28:58;100226.69;;;-0.77;97.41
19624;BME280;9959;49.798;9.928;2023-03-04T02:31:27;100218.97;;;-0.69;96.87
19624;BME280;9959;49.798;9.928;2023-03-04T02:34:00;100225.94;;;-0.68;96.28
19624;BME280;9959;49.798;9.928;2023-03-04T02:36:28;100221.00;;;-0.61;96.13
19624;BME280;9959;49.798;9.928;2023-03-04T02:39:00;100224.13;;;-0.56;96.26
19624;BME280;9959;49.798;9.928;2023-03-04T02:41:28;100221.25;;;-0.64;96.22
19624;BME280;9959;49.798;9.928;2023-03-04T02:43:56;100221.13;;;-0.63;95.66
19624;BME280;9959;49.798;9.928;2023-03-04T02:46:23;100225.50;;;-0.52;95.55
19624;BME280;9959;49.798;9.928;2023-03-04T02:51:17;100218.63;;;-0.44;95.35
19624;BME280;9959;49.798;9.928;2023-03-04T02:53:44;100226.78;;;-0.36;94.88
19624;BME280;9959;49.798;9.928;2023-03-04T02:56:11;100221.22;;;-0.32;94.36
19624;BME280;9959;49.798;9.928;2023-03-04T02:58:38;100210.38;;;-0.29;94.15
19624;BME280;9959;49.798;9.928;2023-03-04T03:01:06;100225.03;;;-0.25;93.92
19624;BME280;9959;49.798;9.928;2023-03-04T03:03:32;100216.19;;;-0.15;93.70
19624;BME280;9959;49.798;9.928;2023-03-04T03:05:59;100221.59;;;-0.16;93.38
19624;BME280;9959;49.798;9.928;2023-03-04T03:08:26;100214.38;;;-0.14;93.28
19624;BME280;9959;49.798;9.928;2023-03-04T03:10:53;100206.06;;;-0.10;93.25
19624;BME280;9959;49.798;9.928;2023-03-04T03:13:20;100208.63;;;-0.19;93.21
19624;BME280;9959;49.798;9.928;2023-03-04T03:15:47;100202.88;;;-0.24;93.70
19624;BME280;9959;49.798;9.928;2023-03-04T03:18:15;100208.25;;;-0.36;94.20
19624;BME280;9959;49.798;9.928;2023-03-04T03:20:42;100206.91;;;-0.30;94.54
19624;BME280;9959;49.798;9.928;2023-03-04T03:23:09;100207.66;;;-0.18;93.76
19624;BME280;9959;49.798;9.928;2023-03-04T03:25:36;100208.56;;;-0.08;93.05
19624;BME280;9959;49.798;9.928;2023-03-04T03:28:03;100204.56;;;-0.03;92.63
19624;BME280;9959;49.798;9.928;2023-03-04T03:30:30;100204.69;;;-0.04;91.99
19624;BME280;9959;49.798;9.928;2023-03-04T03:32:57;100209.44;;;0.02;91.85
19624;BME280;9959;49.798;9.928;2023-03-04T03:35:23;100208.06;;;-0.02;91.99
19624;BME280;9959;49.798;9.928;2023-03-04T03:37:55;100208.31;;;-0.05;91.73
19624;BME280;9959;49.798;9.928;2023-03-04T03:40:26;100209.28;;;-0.06;92.21
19624;BME280;9959;49.798;9.928;2023-03-04T03:42:53;100203.03;;;-0.05;92.31
19624;BME280;9959;49.798;9.928;2023-03-04T03:45:20;100202.53;;;0.11;91.26
19624;BME280;9959;49.798;9.928;2023-03-04T03:47:46;100199.44;;;0.06;91.29
19624;BME280;9959;49.798;9.928;2023-03-04T03:50:13;100200.16;;;0.08;91.16
19624;BME280;9959;49.798;9.928;2023-03-04T03:52:45;100190.91;;;0.02;91.36
19624;BME280;9959;49.798;9.928;2023-03-04T03:55:12;100195.94;;;0.05;91.41
19624;BME280;9959;49.798;9.928;2023-03-04T03:57:39;100195.22;;;0.03;91.42
19624;BME280;9959;49.798;9.928;2023-03-04T04:00:07;100200.53;;;0.03;91.86
19624;BME280;9959;49.798;9.928;2023-03-04T04:02:34;100198.34;;;0.08;91.77
19624;BME280;9959;49.798;9.928;2023-03-04T04:05:01;100206.41;;;0.07;91.40
19624;BME280;9959;49.798;9.928;2023-03-04T04:07:28;100205.63;;;0.16;90.68
19624;BME280;9959;49.798;9.928;2023-03-04T04:09:55;100210.28;;;0.23;90.59
19624;BME280;9959;49.798;9.928;2023-03-04T04:12:21;100207.00;;;0.10;90.59
19624;BME280;9959;49.798;9.928;2023-03-04T04:14:48;100207.44;;;0.15;90.72
19624;BME280;9959;49.798;9.928;2023-03-04T04:17:15;100205.31;;;0.09;90.36
19624;BME280;9959;49.798;9.928;2023-03-04T04:19:42;100205.31;;;0.09;90.93
19624;BME280;9959;49.798;9.928;2023-03-04T04:22:18;100203.44;;;0.21;89.68
19624;BME280;9959;49.798;9.928;2023-03-04T04:24:47;100207.63;;;0.23;89.80
19624;BME280;9959;49.798;9.928;2023-03-04T04:27:15;100195.22;;;0.24;89.45
19624;BME280;9959;49.798;9.928;2023-03-04T04:29:42;100200.78;;;0.21;89.28
19624;BME280;9959;49.798;9.928;2023-03-04T04:32:09;100200.41;;;0.25;89.49
19624;BME280;9959;49.798;9.928;2023-03-04T04:34:40;100193.28;;;0.26;88.63
19624;BME280;9959;49.798;9.928;2023-03-04T04:37:07;100198.72;;;0.24;88.64
19624;BME280;9959;49.798;9.928;2023-03-04T04:39:34;100197.75;;;0.25;88.55
19624;BME280;9959;49.798;9.928;2023-03-04T04:42:02;100197.88;;;0.24;88.22
19624;BME280;9959;49.798;9.928;2023-03-04T04:44:29;100202.06;;;0.26;87.99
19624;BME280;9959;49.798;9.928;2023-03-04T04:46:56;100198.41;;;0.27;87.99
19624;BME280;9959;49.798;9.928;2023-03-04T04:49:23;100196.47;;;0.29;88.05
19624;BME280;9959;49.798;9.928;2023-03-04T04:51:49;100194.81;;;0.28;88.02
19624;BME280;9959;49.798;9.928;2023-03-04T04:54:16;100196.22;;;0.32;87.63
19624;BME280;9959;49.798;9.928;2023-03-04T04:56:43;100189.25;;;0.31;87.16
19624;BME280;9959;49.798;9.928;2023-03-04T04:59:09;100185.16;;;0.27;87.79
19624;BME280;9959;49.798;9.928;2023-03-04T05:01:36;100193.13;;;0.27;87.79
19624;BME280;9959;49.798;9.928;2023-03-04T05:04:04;100188.91;;;0.46;86.89
19624;BME280;9959;49.798;9.928;2023-03-04T05:06:31;100191.22;;;0.39;86.93
19624;BME280;9959;49.798;9.928;2023-03-04T05:08:58;100194.31;;;0.44;86.65
19624;BME280;9959;49.798;9.928;2023-03-04T05:11:25;100194.59;;;0.41;86.72
19624;BME280;9959;49.798;9.928;2023-03-04T05:13:52;100196.59;;;0.49;86.83
19624;BME280;9959;49.798;9.928;2023-03-04T05:16:19;100198.53;;;0.47;86.65
19624;BME280;9959;49.798;9.928;2023-03-04T05:18:45;100195.69;;;0.39;86.92
19624;BME280;9959;49.798;9.928;2023-03-04T05:21:13;100196.28;;;0.42;86.63
19624;BME280;9959;49.798;9.928;2023-03-04T05:23:41;100196.66;;;0.38;86.75
19624;BME280;9959;49.798;9.928;2023-03-04T05:26:12;100199.88;;;0.41;86.33
19624;BME280;9959;49.798;9.928;2023-03-04T05:28:39;100196.41;;;0.41;86.43
19624;BME280;9959;49.798;9.928;2023-03-04T05:31:06;100185.94;;;0.39;86.70
19624;BME280;9959;49.798;9.928;2023-03-04T05:33:33;100196.59;;;0.49;86.07
19624;BME280;9959;49.798;9.928;2023-03-04T05:36:01;100200.47;;;0.45;86.02
19624;BME280;9959;49.798;9.928;2023-03-04T05:38:28;100202.16;;;0.46;86.01
19624;BME280;9959;49.798;9.928;2023-03-04T05:41:01;100204.53;;;0.49;85.55
19624;BME280;9959;49.798;9.928;2023-03-04T05:43:29;100199.38;;;0.57;84.82
19624;BME280;9959;49.798;9.928;2023-03-04T05:45:56;100208.22;;;0.67;84.65
19624;BME280;9959;49.798;9.928;2023-03-04T05:48:23;100195.66;;;0.69;83.96
19624;BME280;9959;49.798;9.928;2023-03-04T05:53:17;100196.38;;;0.71;84.17
19624;BME280;9959;49.798;9.928;2023-03-04T05:55:47;100208.00;;;0.80;83.66
19624;BME280;9959;49.798;9.928;2023-03-04T05:58:15;100208.66;;;0.72;83.71
19624;BME280;9959;49.798;9.928;2023-03-04T06:00:42;100212.81;;;0.65;83.67
19624;BME280;9959;49.798;9.928;2023-03-04T06:03:20;100217.28;;;0.64;83.32
19624;BME280;9959;49.798;9.928;2023-03-04T06:05:48;100213.25;;;0.70;83.47
19624;BME280;9959;49.798;9.928;2023-03-04T06:08:16;100217.91;;;0.87;83.06
19624;BME280;9959;49.798;9.928;2023-03-04T06:10:43;100214.00;;;0.91;83.15
19624;BME280;9959;49.798;9.928;2023-03-04T06:13:10;100214.53;;;0.85;82.70
19624;BME280;9959;49.798;9.928;2023-03-04T06:15:38;100226.25;;;0.73;82.36
19624;BME280;9959;49.798;9.928;2023-03-04T06:18:08;100227.78;;;0.76;82.88
19624;BME280;9959;49.798;9.928;2023-03-04T06:20:36;100225.72;;;0.79;82.85
19624;BME280;9959;49.798;9.928;2023-03-04T06:23:04;100220.94;;;0.83;83.07
19624;BME280;9959;49.798;9.928;2023-03-04T06:25:31;100221.13;;;0.81;82.94
19624;BME280;9959;49.798;9.928;2023-03-04T06:27:58;100227.53;;;0.88;81.53
19624;BME280;9959;49.798;9.928;2023-03-04T06:30:28;100229.06;;;0.81;82.12
19624;BME280;9959;49.798;9.928;2023-03-04T06:32:55;100227.09;;;0.83;81.52
19624;BME280;9959;49.798;9.928;2023-03-04T06:35:22;100228.78;;;0.84;80.88
19624;BME280;9959;49.798;9.928;2023-03-04T06:37:49;100232.97;;;0.87;80.78
19624;BME280;9959;49.798;9.928;2023-03-04T06:40:16;100233.97;;;0.95;80.62
19624;BME280;9959;49.798;9.928;2023-03-04T06:42:43;100232.69;;;0.90;80.39
19624;BME280;9959;49.798;9.928;2023-03-04T06:45:10;100245.13;;;0.89;80.16
19624;BME280;9959;49.798;9.928;2023-03-04T06:47:38;100246.72;;;1.01;79.87
19624;BME280;9959;49.798;9.928;2023-03-04T06:50:05;100237.19;;;0.99;80.13
19624;BME280;9959;49.798;9.928;2023-03-04T06:52:32;100242.53;;;1.09;79.79
19624;BME280;9959;49.798;9.928;2023-03-04T06:54:59;100239.19;;;1.07;79.23
19624;BME280;9959;49.798;9.928;2023-03-04T06:57:26;100245.59;;;1.14;79.41
19624;BME280;9959;49.798;9.928;2023-03-04T06:59:53;100243.09;;;1.02;79.78
19624;BME280;9959;49.798;9.928;2023-03-04T07:02:19;100253.41;;;1.15;79.54
19624;BME280;9959;49.798;9.928;2023-03-04T07:04:46;100245.19;;;1.18;79.25
19624;BME280;9959;49.798;9.928;2023-03-04T07:07:14;100248.41;;;1.22;79.22
19624;BME280;9959;49.798;9.928;2023-03-04T07:09:42;100252.31;;;1.18;78.97
19624;BME280;9959;49.798;9.928;2023-03-04T07:12:11;100250.81;;;1.34;79.07
19624;BME280;9959;49.798;9.928;2023-03-04T07:14:38;100251.78;;;1.24;78.81
19624;BME280;9959;49.798;9.928;2023-03-04T07:17:04;100259.72;;;1.24;79.31
19624;BME280;9959;49.798;9.928;2023-03-04T07:19:31;100267.28;;;1.38;78.22
19624;BME280;9959;49.798;9.928;2023-03-04T07:21:58;100257.94;;;1.34;78.00
19624;BME280;9959;49.798;9.928;2023-03-04T07:24:25;100265.22;;;1.51;77.66
19624;BME280;9959;49.798;9.928;2023-03-04T07:26:51;100266.19;;;1.50;77.50
19624;BME280;9959;49.798;9.928;2023-03-04T07:29:18;100262.00;;;1.57;77.48
19624;BME280;9959;49.798;9.928;2023-03-04T07:31:45;100268.56;;;1.73;76.78
19624;BME280;9959;49.798;9.928;2023-03-04T07:34:13;100272.09;;;1.63;76.74
19624;BME280;9959;49.798;9.928;2023-03-04T07:36:41;100266.47;;;1.66;76.69
19624;BME280;9959;49.798;9.928;2023-03-04T07:39:10;100267.75;;;1.62;76.95
19624;BME280;9959;49.798;9.928;2023-03-04T07:41:40;100271.94;;;1.75;76.46
19624;BME280;9959;49.798;9.928;2023-03-04T07:44:10;100270.53;;;1.70;76.47
19624;BME280;9959;49.798;9.928;2023-03-04T07:46:39;100272.63;;;1.77;76.75
19624;BME280;9959;49.798;9.928;2023-03-04T07:49:06;100275.72;;;1.62;77.22
19624;BME280;9959;49.798;9.928;2023-03-04T07:51:33;100273.34;;;1.79;76.02
19624;BME280;9959;49.798;9.928;2023-03-04T07:54:01;100279.47;;;1.79;76.23
19624;BME280;9959;49.798;9.928;2023-03-04T07:56:30;100279.75;;;1.66;76.38
19624;BME280;9959;49.798;9.928;2023-03-04T07:58:57;100279.50;;;1.60;76.92
19624;BME280;9959;49.798;9.928;2023-03-04T08:01:27;100282.81;;;1.72;76.19
19624;BME280;9959;49.798;9.928;2023-03-04T08:03:54;100279.63;;;1.78;76.32
19624;BME280;9959;49.798;9.928;2023-03-04T08:06:22;100280.88;;;1.74;76.35
19624;BME280;9959;49.798;9.928;2023-03-04T08:11:20;100274.59;;;1.75;75.98
19624;BME280;9959;49.798;9.928;2023-03-04T08:13:47;100273.34;;;1.88;76.04
19624;BME280;9959;49.798;9.928;2023-03-04T08:16:17;100273.88;;;2.11;74.59
19624;BME280;9959;49.798;9.928;2023-03-04T08:18:46;100264.06;;;2.02;75.03
19624;BME280;9959;49.798;9.928;2023-03-04T08:21:15;100269.13;;;2.05;74.88
19624;BME280;9959;49.798;9.928;2023-03-04T08:23:45;100272.13;;;2.29;74.01
19624;BME280;9959;49.798;9.928;2023-03-04T08:28:45;100271.31;;;2.19;74.20
19624;BME280;9959;49.798;9.928;2023-03-04T08:31:13;100273.41;;;2.25;73.93
19624;BME280;9959;49.798;9.928;2023-03-04T08:33:41;100275.13;;;2.17;74.43
19624;BME280;9959;49.798;9.928;2023-03-04T08:36:08;100272.16;;;2.20;74.15
19624;BME280;9959;49.798;9.928;2023-03-04T08:38:36;100279.47;;;2.18;74.00
19624;BME280;9959;49.798;9.928;2023-03-04T08:41:03;100282.06;;;2.27;73.54
19624;BME280;9959;49.798;9.928;2023-03-04T08:43:31;100288.09;;;2.29;73.50
19624;BME280;9959;49.798;9.928;2023-03-04T08:45:58;100287.25;;;2.38;73.30
19624;BME280;9959;49.798;9.928;2023-03-04T08:48:25;100281.66;;;2.42;73.75
19624;BME280;9959;49.798;9.928;2023-03-04T08:50:52;100286.97;;;2.22;73.90
19624;BME280;9959;49.798;9.928;2023-03-04T08:53:19;100284.69;;;2.47;73.38
19624;BME280;9959;49.798;9.928;2023-03-04T08:55:47;100286.97;;;2.42;73.41
19624;BME280;9959;49.798;9.928;2023-03-04T08:58:14;100284.03;;;2.45;74.37
19624;BME280;9959;49.798;9.928;2023-03-04T09:00:43;100283.56;;;2.49;73.12
19624;BME280;9959;49.798;9.928;2023-03-04T09:03:11;100285.06;;;2.71;72.50
19624;BME280;9959;49.798;9.928;2023-03-04T09:05:38;100286.06;;;2.60;72.78
19624;BME280;9959;49.798;9.928;2023-03-04T09:08:06;100282.81;;;2.66;71.52
19624;BME280;9959;49.798;9.928;2023-03-04T09:10:33;100278.75;;;2.72;72.11
19624;BME280;9959;49.798;9.928;2023-03-04T09:13:00;100282.25;;;3.00;70.75
19624;BME280;9959;49.798;9.928;2023-03-04T09:15:27;100282.19;;;2.82;71.46
19624;BME280;9959;49.798;9.928;2023-03-04T09:17:54;100279.13;;;3.04;70.98
19624;BME280;9959;49.798;9.928;2023-03-04T09:20:21;100276.75;;;3.01;70.60
19624;BME280;9959;49.798;9.928;2023-03-04T09:22:48;100278.13;;;2.78;71.46
19624;BME280;9959;49.798;9.928;2023-03-04T09:25:15;100271.75;;;3.26;69.88
19624;BME280;9959;49.798;9.928;2023-03-04T09:27:42;100273.06;;;3.12;69.79
19624;BME280;9959;49.798;9.928;2023-03-04T09:30:09;100273.72;;;2.96;70.29
19624;BME280;9959;49.798;9.928;2023-03-04T09:32:36;100273.81;;;3.04;70.04
19624;BME280;9959;49.798;9.928;2023-03-04T09:35:07;100272.63;;;3.17;69.80
19624;BME280;9959;49.798;9.928;2023-03-04T09:37:35;100275.00;;;3.20;70.95
19624;BME280;9959;49.798;9.928;2023-03-04T09:40:07;100271.75;;;3.26;71.45
19624;BME280;9959;49.798;9.928;2023-03-04T09:42:42;100264.69;;;3.52;69.25
19624;BME280;9959;49.798;9.928;2023-03-04T09:45:17;100270.13;;;3.33;70.25
19624;BME280;9959;49.798;9.928;2023-03-04T09:47:45;100272.81;;;3.33;69.52
19624;BME280;9959;49.798;9.928;2023-03-04T09:50:14;100273.00;;;3.49;69.23
19624;BME280;9959;49.798;9.928;2023-03-04T09:55:22;100272.06;;;3.58;68.90
19624;BME280;9959;49.798;9.928;2023-03-04T10:00:43;100274.59;;;3.60;69.00
19624;BME280;9959;49.798;9.928;2023-03-04T10:03:18;100277.53;;;3.57;68.95
19624;BME280;9959;49.798;9.928;2023-03-04T10:10:54;100267.56;;;3.41;70.00
19624;BME280;9959;49.798;9.928;2023-03-04T10:13:30;100271.38;;;3.56;69.05
19624;BME280;9959;49.798;9.928;2023-03-04T10:16:01;100268.94;;;3.45;69.92
19624;BME280;9959;49.798;9.928;2023-03-04T10:18:36;100268.72;;;3.56;69.54
19624;BME280;9959;49.798;9.928;2023-03-04T10:23:46;100260.13;;;3.45;70.22
19624;BME280;9959;49.798;9.928;2023-03-04T10:26:17;100261.81;;;3.46;70.10
19624;BME280;9959;49.798;9.928;2023-03-04T10:28:46;100260.88;;;3.37;70.24
19624;BME280;9959;49.798;9.928;2023-03-04T10:31:24;100262.94;;;3.43;69.57
19624;BME280;9959;49.798;9.928;2023-03-04T10:33:55;100254.41;;;3.57;69.85
19624;BME280;9959;49.798;9.928;2023-03-04T10:39:16;100257.63;;;3.79;68.46
19624;BME280;9959;49.798;9.928;2023-03-04T10:41:45;100254.09;;;3.60;68.83
19624;BME280;9959;49.798;9.928;2023-03-04T10:44:18;100247.56;;;3.72;68.59
19624;BME280;9959;49.798;9.928;2023-03-04T10:46:47;100254.00;;;3.88;67.59
19624;BME280;9959;49.798;9.928;2023-03-04T10:49:17;100242.25;;;3.72;67.58
19624;BME280;9959;49.798;9.928;2023-03-04T10:51:49;100256.41;;;3.73;67.51
19624;BME280;9959;49.798;9.928;2023-03-04T10:54:26;100251.13;;;3.99;67.04
19624;BME280;9959;49.798;9.928;2023-03-04T10:59:47;100252.44;;;4.47;65.14
19624;BME280;9959;49.798;9.928;2023-03-04T11:05:24;100237.91;;;4.41;64.87
19624;BME280;9959;49.798;9.928;2023-03-04T11:10:40;100235.00;;;4.26;65.28
19624;BME280;9959;49.798;9.928;2023-03-04T11:18:19;100228.22;;;4.74;63.29
19624;BME280;9959;49.798;9.928;2023-03-04T11:20:49;100223.19;;;4.63;63.30
19624;BME280;9959;49.798;9.928;2023-03-04T11:23:21;100226.63;;;4.21;64.35
19624;BME280;9959;49.798;9.928;2023-03-04T11:28:20;100226.28;;;4.50;63.41
19624;BME280;9959;49.798;9.928;2023-03-04T11:36:28;100217.81;;;4.55;62.91
19624;BME280;9959;49.798;9.928;2023-03-04T11:38:57;100214.19;;;4.30;63.49
19624;BME280;9959;49.798;9.928;2023-03-04T11:41:29;100215.31;;;4.27;64.37
19624;BME280;9959;49.798;9.928;2023-03-04T11:43:59;100211.75;;;4.19;64.50
19624;BME280;9959;49.798;9.928;2023-03-04T11:46:44;100208.06;;;4.37;63.49
19624;BME280;9959;49.798;9.928;2023-03-04T12:06:16;100190.31;;;4.28;64.38
19624;BME280;9959;49.798;9.928;2023-03-04T12:11:40;100187.97;;;4.25;64.48
19624;BME280;9959;49.798;9.928;2023-03-04T12:19:26;100182.75;;;4.50;64.26
19624;BME280;9959;49.798;9.928;2023-03-04T12:22:27;100184.16;;;4.28;64.50
19624;BME280;9959;49.798;9.928;2023-03-04T12:25:35;100177.16;;;4.27;65.17
19624;BME280;9959;49.798;9.928;2023-03-04T12:28:30;100175.13;;;4.55;64.15
19624;BME280;9959;49.798;9.928;2023-03-04T12:39:50;100159.69;;;4.74;62.73
19624;BME280;9959;49.798;9.928;2023-03-04T12:47:51;100153.63;;;4.56;63.36
19624;BME280;9959;49.798;9.928;2023-03-04T12:53:36;100153.53;;;4.82;63.31
19624;BME280;9959;49.798;9.928;2023-03-04T12:56:21;100143.22;;;4.87;63.02
19624;BME280;9959;49.798;9.928;2023-03-04T12:58:48;100143.72;;;4.91;62.87
19624;BME280;9959;49.798;9.928;2023-03-04T13:01:22;100139.25;;;5.07;62.36
19624;BME280;9959;49.798;9.928;2023-03-04T13:04:38;100143.09;;;5.13;62.16
19624;BME280;9959;49.798;9.928;2023-03-04T13:09:31;100137.13;;;4.69;64.49
19624;BME280;9959;49.798;9.928;2023-03-04T13:14:31;100132.44;;;4.55;64.66
19624;BME280;9959;49.798;9.928;2023-03-04T13:17:00;100140.28;;;4.56;65.38
19624;BME280;9959;49.798;9.928;2023-03-04T13:19:44;100129.09;;;4.53;65.01
19624;BME280;9959;49.798;9.928;2023-03-04T13:22:32;100134.38;;;4.36;65.54
19624;BME280;9959;49.798;9.928;2023-03-04T13:28:20;100122.75;;;4.54;65.20
19624;BME280;9959;49.798;9.928;2023-03-04T13:33:38;100107.09;;;4.67;64.73
19624;BME280;9959;49.798;9.928;2023-03-04T13:41:47;100097.78;;;4.63;65.04
19624;BME280;9959;49.798;9.928;2023-03-04T13:47:29;100092.59;;;4.69;64.79
19624;BME280;9959;49.798;9.928;2023-03-04T13:50:21;100095.50;;;4.84;64.59
19624;BME280;9959;49.798;9.928;2023-03-04T13:52:48;100088.94;;;4.70;64.68
19624;BME280;9959;49.798;9.928;2023-03-04T13:55:37;100079.28;;;4.94;64.57
19624;BME280;9959;49.798;9.928;2023-03-04T13:58:34;100088.81;;;4.96;64.99
19624;BME280;9959;49.798;9.928;2023-03-04T14:01:02;100081.13;;;4.85;64.34
19624;BME280;9959;49.798;9.928;2023-03-04T14:03:30;100080.81;;;5.04;63.84
19624;BME280;9959;49.798;9.928;2023-03-04T14:06:19;100076.31;;;5.05;64.17
19624;BME280;9959;49.798;9.928;2023-03-04T14:08:47;100073.47;;;4.90;64.64
19624;BME280;9959;49.798;9.928;2023-03-04T14:11:38;100077.47;;;5.02;63.41
19624;BME280;9959;49.798;9.928;2023-03-04T14:14:06;100071.97;;;4.96;64.24
19624;BME280;9959;49.798;9.928;2023-03-04T14:16:48;100069.44;;;4.94;64.09
19624;BME280;9959;49.798;9.928;2023-03-04T14:19:24;100070.94;;;4.72;64.75
19624;BME280;9959;49.798;9.928;2023-03-04T14:21:52;100063.63;;;4.91;64.03
19624;BME280;9959;49.798;9.928;2023-03-04T14:24:20;100056.78;;;4.88;64.39
19624;BME280;9959;49.798;9.928;2023-03-04T14:26:48;100058.13;;;4.92;63.95
19624;BME280;9959;49.798;9.928;2023-03-04T14:29:26;100058.81;;;5.10;63.67
19624;BME280;9959;49.798;9.928;2023-03-04T14:31:55;100056.44;;;4.99;65.31
19624;BME280;9959;49.798;9.928;2023-03-04T14:34:28;100057.31;;;4.92;64.22
19624;BME280;9959;49.798;9.928;2023-03-04T14:36:59;100049.09;;;4.93;63.66
19624;BME280;9959;49.798;9.928;2023-03-04T14:39:31;100049.94;;;5.02;63.46
19624;BME280;9959;49.798;9.928;2023-03-04T14:42:07;100057.09;;;4.93;64.03
19624;BME280;9959;49.798;9.928;2023-03-04T14:44:41;100056.44;;;4.83;64.87
19624;BME280;9959;49.798;9.928;2023-03-04T14:47:34;100046.25;;;4.70;65.59
19624;BME280;9959;49.798;9.928;2023-03-04T14:50:06;100053.72;;;4.67;65.78
19624;BME280;9959;49.798;9.928;2023-03-04T14:52:37;100044.56;;;4.69;65.72
19624;BME280;9959;49.798;9.928;2023-03-04T14:55:25;100048.22;;;4.52;66.06
19624;BME280;9959;49.798;9.928;2023-03-04T14:58:17;100053.00;;;4.40;67.14
19624;BME280;9959;49.798;9.928;2023-03-04T15:00:45;100044.31;;;4.38;67.22
19624;BME280;9959;49.798;9.928;2023-03-04T15:03:22;100043.72;;;4.53;67.21
19624;BME280;9959;49.798;9.928;2023-03-04T15:05:51;100046.34;;;4.36;67.29
19624;BME280;9959;49.798;9.928;2023-03-04T15:08:24;100039.00;;;4.30;67.69
19624;BME280;9959;49.798;9.928;2023-03-04T15:10:56;100033.84;;;4.37;67.58
19624;BME280;9959;49.798;9.928;2023-03-04T15:13:43;100037.13;;;4.23;67.60